createdAt,value
2022-07-27T14:44:07.945Z,1.60
2022-07-27T14:46:40.597Z,1.50
2022-07-27T14:49:15.039Z,1.70
2022-07-27T14:51:47.648Z,1.00
2022-07-27T14:54:20.406Z,1.30
2022-07-27T14:56:52.654Z,1.50
2022-07-27T14:59:25.063Z,1.10
2022-07-27T15:01:57.577Z,1.40
2022-07-27T15:04:31.910Z,1.10
2022-07-27T15:07:04.782Z,1.30
2022-07-27T15:09:37.911Z,1.20
2022-07-27T15:12:10.682Z,1.20
2022-07-27T15:14:43.697Z,1.20
2022-07-27T15:17:16.498Z,1.10
2022-07-27T15:19:48.803Z,1.80
2022-07-27T15:22:21.617Z,1.40
2022-07-27T15:24:57.090Z,1.00
2022-07-27T15:27:29.507Z,1.40
2022-07-27T15:30:02.495Z,1.30
2022-07-27T15:32:34.927Z,1.30
2022-07-27T15:35:08.479Z,1.30
2022-07-27T15:37:40.801Z,1.20
2022-07-27T15:40:39.212Z,1.20
2022-07-27T15:43:14.253Z,1.20
2022-07-27T15:45:48.509Z,1.40
2022-07-27T15:48:23.292Z,1.40
2022-07-27T15:50:58.720Z,1.40
2022-07-27T15:53:32.202Z,1.40
2022-07-27T15:56:04.300Z,1.50
2022-07-27T15:58:37.190Z,1.40
2022-07-27T16:01:12.162Z,1.20
2022-07-27T16:03:45.525Z,1.40
2022-07-27T16:06:20.977Z,1.50
2022-07-27T16:08:53.509Z,1.30
2022-07-27T16:11:25.987Z,1.30
2022-07-27T16:13:58.665Z,1.20
2022-07-27T16:16:31.846Z,1.40
2022-07-27T16:19:12.906Z,1.00
2022-07-27T16:21:53.312Z,1.90
2022-07-27T16:24:28.125Z,1.60
2022-07-27T16:27:01.851Z,1.40
2022-07-27T16:29:34.506Z,1.40
2022-07-27T16:32:07.258Z,1.50
2022-07-27T16:34:40.177Z,1.20
2022-07-27T16:37:13.264Z,1.70
2022-07-27T16:39:45.871Z,1.50
2022-07-27T16:42:18.211Z,1.40
2022-07-27T16:44:51.096Z,1.50
2022-07-27T16:47:23.775Z,1.40
2022-07-27T16:49:56.475Z,1.60
2022-07-27T16:52:28.970Z,1.40
2022-07-27T16:55:01.887Z,1.40
2022-07-27T16:57:34.496Z,1.60
2022-07-27T17:00:10.159Z,1.50
2022-07-27T17:02:42.924Z,1.80
2022-07-27T17:05:15.408Z,1.50
2022-07-27T17:07:50.712Z,1.50
2022-07-27T17:10:27.226Z,1.50
2022-07-27T17:15:32.775Z,1.40
2022-07-27T17:18:06.100Z,1.50
2022-07-27T17:20:40.264Z,1.20
2022-07-27T17:23:12.567Z,1.20
2022-07-27T17:25:45.387Z,1.30
2022-07-27T17:28:17.819Z,1.80
2022-07-27T17:30:50.644Z,1.70
2022-07-27T17:33:22.905Z,1.90
2022-07-27T17:35:58.234Z,2.00
2022-07-27T17:38:30.589Z,2.40
2022-07-27T17:41:04.887Z,2.60
2022-07-27T17:43:39.039Z,2.10
2022-07-27T17:46:13.076Z,2.30
2022-07-27T17:48:45.662Z,2.60
2022-07-27T17:51:18.108Z,2.50
2022-07-27T17:53:50.768Z,2.30
2022-07-27T17:56:23.328Z,1.90
2022-07-27T17:59:01.555Z,1.90
2022-07-27T18:01:48.401Z,1.90
2022-07-27T18:04:21.427Z,2.10
2022-07-27T18:06:53.885Z,2.00
2022-07-27T18:09:26.134Z,2.10
2022-07-27T18:11:58.761Z,2.40
2022-07-27T18:14:31.312Z,3.00
2022-07-27T18:17:03.872Z,2.00
2022-07-27T18:19:36.084Z,2.00
2022-07-27T18:22:08.865Z,1.80
2022-07-27T18:24:41.387Z,2.60
2022-07-27T18:27:14.031Z,2.20
2022-07-27T18:29:46.442Z,2.20
2022-07-27T18:32:19.078Z,2.80
2022-07-27T18:34:51.448Z,2.30
2022-07-27T18:37:24.131Z,1.90
2022-07-27T18:39:56.649Z,2.10
2022-07-27T18:42:29.257Z,2.00
2022-07-27T18:45:01.853Z,2.20
2022-07-27T18:47:34.443Z,2.60
2022-07-27T18:50:08.629Z,2.70
2022-07-27T18:52:41.334Z,2.60
2022-07-27T18:55:15.214Z,2.60
2022-07-27T18:57:47.945Z,2.40
2022-07-27T19:00:21.054Z,2.20
2022-07-27T19:02:57.243Z,2.40
2022-07-27T19:05:32.696Z,2.10
2022-07-27T19:08:14.334Z,1.90
2022-07-27T19:10:47.595Z,1.80
2022-07-27T19:13:20.074Z,2.90
2022-07-27T19:15:52.840Z,2.60
2022-07-27T19:18:26.483Z,2.80
2022-07-27T19:20:58.739Z,2.50
2022-07-27T19:23:31.190Z,2.40
2022-07-27T19:26:03.226Z,2.40
2022-07-27T19:28:35.638Z,2.60
2022-07-27T19:31:22.540Z,3.00
2022-07-27T19:36:26.461Z,2.40
2022-07-27T19:39:04.142Z,2.50
2022-07-27T19:41:39.592Z,2.70
2022-07-27T19:44:12.057Z,2.40
2022-07-27T19:46:44.390Z,2.80
2022-07-27T19:49:18.434Z,2.40
2022-07-27T19:51:50.998Z,2.50
2022-07-27T19:54:23.167Z,2.40
2022-07-27T19:56:55.256Z,2.50
2022-07-27T19:59:27.870Z,2.80
2022-07-27T20:02:20.070Z,3.10
2022-07-27T20:04:52.586Z,2.80
2022-07-27T20:07:24.858Z,2.70
2022-07-27T20:09:57.168Z,3.00
2022-07-27T20:12:29.527Z,2.90
2022-07-27T20:15:01.991Z,2.90
2022-07-27T20:17:37.310Z,2.60
2022-07-27T20:20:12.449Z,3.00
2022-07-27T20:22:44.654Z,3.60
2022-07-27T20:25:18.650Z,3.30
2022-07-27T20:27:52.409Z,2.40
2022-07-27T20:30:24.750Z,3.70
2022-07-27T20:32:57.017Z,2.80
2022-07-27T20:35:35.316Z,2.80
2022-07-27T20:38:10.628Z,2.70
2022-07-27T20:40:43.034Z,2.80
2022-07-27T20:43:15.354Z,2.50
2022-07-27T20:45:47.488Z,2.20
2022-07-27T20:48:19.810Z,2.30
2022-07-27T20:50:53.551Z,1.80
2022-07-27T20:53:26.710Z,1.70
2022-07-27T20:55:59.220Z,2.30
2022-07-27T20:58:31.717Z,2.00
2022-07-27T21:01:04.354Z,2.60
2022-07-27T21:03:37.112Z,2.40
2022-07-27T21:06:10.109Z,1.90
2022-07-27T21:08:46.480Z,1.90
2022-07-27T21:13:54.608Z,2.90
2022-07-27T21:16:27.093Z,2.80
2022-07-27T21:18:59.647Z,2.40
2022-07-27T21:21:32.380Z,2.20
2022-07-27T21:24:19.133Z,2.50
2022-07-27T21:26:53.777Z,2.60
2022-07-27T21:29:31.812Z,2.20
2022-07-27T21:32:04.562Z,2.20
2022-07-27T21:34:36.921Z,1.90
2022-07-27T21:37:09.595Z,2.30
2022-07-27T21:39:41.882Z,2.20
2022-07-27T21:42:14.482Z,2.20
2022-07-27T21:44:47.337Z,2.30
2022-07-27T21:47:19.822Z,1.90
2022-07-27T21:49:52.084Z,2.20
2022-07-27T21:52:24.470Z,2.20
2022-07-27T21:54:56.695Z,2.00
2022-07-27T21:57:29.118Z,1.60
2022-07-27T22:00:01.485Z,2.20
2022-07-27T22:02:36.667Z,2.00
2022-07-27T22:05:09.903Z,2.00
2022-07-27T22:07:42.611Z,1.90
2022-07-27T22:10:16.389Z,1.70
2022-07-27T22:12:48.986Z,1.70
2022-07-27T22:15:21.411Z,2.10
2022-07-27T22:17:53.539Z,2.20
2022-07-27T22:20:26.385Z,2.10
2022-07-27T22:22:59.118Z,1.90
2022-07-27T22:25:31.593Z,1.90
2022-07-27T22:28:03.929Z,2.00
2022-07-27T22:30:36.596Z,2.00
2022-07-27T22:33:09.697Z,2.30
2022-07-27T22:35:42.548Z,2.10
2022-07-27T22:38:14.889Z,1.90
2022-07-27T22:40:47.037Z,1.70
2022-07-27T22:43:23.009Z,1.90
2022-07-27T22:45:55.753Z,2.00
2022-07-27T22:48:28.323Z,2.10
2022-07-27T22:51:00.712Z,2.30
2022-07-27T22:53:33.169Z,1.80
2022-07-27T22:56:06.088Z,1.80
2022-07-27T22:58:38.227Z,2.30
2022-07-27T23:01:14.890Z,2.10
2022-07-27T23:04:02.946Z,1.80
2022-07-27T23:06:35.235Z,2.30
2022-07-27T23:09:07.493Z,1.80
2022-07-27T23:11:39.733Z,2.10
2022-07-27T23:14:12.381Z,2.20
2022-07-27T23:16:45.555Z,2.10
2022-07-27T23:19:17.676Z,2.00
2022-07-27T23:21:50.644Z,2.00
2022-07-27T23:24:29.343Z,2.00
2022-07-27T23:27:02.304Z,2.00
2022-07-27T23:29:34.644Z,2.20
2022-07-27T23:32:11.065Z,2.00
2022-07-27T23:34:43.320Z,2.50
2022-07-27T23:37:15.978Z,2.10
2022-07-27T23:39:49.056Z,2.20
2022-07-27T23:42:21.388Z,2.40
2022-07-27T23:44:53.928Z,2.40
2022-07-27T23:47:26.988Z,2.00
2022-07-27T23:49:59.363Z,2.80
2022-07-27T23:52:31.727Z,2.30
2022-07-27T23:55:04.038Z,2.30
2022-07-27T23:57:36.443Z,2.50
